< < Back
Terminal Aerodrome Forecast


Current Version              Previous Versions:   1  2  3  4  5  6  7  8  9  

Terminal Aerodrome Forecast

618
FTUS42 KGSP 210800 AAA
TAFCLT
TAF AMD
KCLT 210850Z 2109/2206 29003KT P6SM FEW250
     FM211300 28005KT P6SM FEW250
     FM212000 30010G22KT P6SM FEW050
     FM220400 33009KT P6SM FEW250=



Latest METAR

945
SAUS70 KWBC 211256
MTRCLT
METAR KCLT 211252Z 00000KT 10SM FEW250 14/11 A2997 RMK AO2 SLP144
T01390111


USA.gov is the U.S. government's official web portal to all federal, state and local government web resources and services.